createdAt,value
2023-04-28T00:01:22.512Z,99533.04
2023-04-28T00:06:26.109Z,99533.36
2023-04-28T00:11:29.462Z,99526.98
2023-04-28T00:16:33.248Z,99530.86
2023-04-28T00:21:37.091Z,99526.66
2023-04-28T00:26:40.657Z,99523.33
2023-04-28T00:31:45.315Z,99518.65
2023-04-28T00:36:48.683Z,99512.47
2023-04-28T00:41:51.991Z,99511.27
2023-04-28T00:46:56.855Z,99507.91
2023-04-28T00:52:05.260Z,99500.73
2023-04-28T00:57:10.345Z,99499.41
2023-04-28T01:02:17.690Z,99504.66
2023-04-28T01:07:24.511Z,99505.71
2023-04-28T01:12:28.317Z,99512.55
2023-04-28T01:17:40.029Z,99507.56
2023-04-28T01:29:07.818Z,99513.30
2023-04-28T01:34:11.315Z,99519.14
2023-04-28T01:39:15.274Z,99523.19
2023-04-28T01:44:19.191Z,99520.96
2023-04-28T01:49:25.495Z,99522.42
2023-04-28T01:54:29.044Z,99514.85
2023-04-28T01:59:32.327Z,99514.45
2023-04-28T02:04:35.719Z,99513.50
2023-04-28T02:16:48.297Z,99513.11
2023-04-28T02:21:51.970Z,99517.54
2023-04-28T02:26:55.903Z,99514.79
2023-04-28T02:31:59.442Z,99509.25
2023-04-28T02:37:11.819Z,99512.99
2023-04-28T02:42:15.218Z,99512.51
2023-04-28T02:47:18.465Z,99515.67
2023-04-28T02:52:21.854Z,99515.16
2023-04-28T02:57:25.477Z,99511.73
2023-04-28T03:02:29.029Z,99509.59
2023-04-28T03:07:32.362Z,99515.08
2023-04-28T03:12:35.783Z,99509.92
2023-04-28T03:17:42.080Z,99510.50
2023-04-28T03:22:45.609Z,99514.25
2023-04-28T03:27:48.993Z,99513.32
2023-04-28T03:32:52.889Z,99519.80
2023-04-28T03:37:56.232Z,99518.93
2023-04-28T03:43:00.195Z,99518.05
2023-04-28T03:48:09.858Z,99521.50
2023-04-28T03:53:13.210Z,99523.99
2023-04-28T03:58:17.074Z,99524.02
2023-04-28T04:03:23.226Z,99525.59
2023-04-28T04:08:26.952Z,99529.04
2023-04-28T04:13:30.192Z,99528.05
2023-04-28T04:18:33.912Z,99527.31
2023-04-28T04:24:07.079Z,99528.77
2023-04-28T04:29:11.227Z,99525.48
2023-04-28T04:34:15.826Z,99525.72
2023-04-28T04:39:19.463Z,99526.96
2023-04-28T04:44:24.729Z,99521.48
2023-04-28T04:49:31.223Z,99522.34
2023-04-28T04:54:42.629Z,99513.29
2023-04-28T04:59:46.376Z,99517.35
2023-04-28T05:04:54.518Z,99513.77
2023-04-28T05:10:00.986Z,99514.83
2023-04-28T05:15:08.546Z,99515.80
2023-04-28T05:20:15.314Z,99512.79
2023-04-28T05:25:18.747Z,99513.87
2023-04-28T05:30:22.242Z,99512.92
2023-04-28T05:35:26.619Z,99515.19
2023-04-28T05:40:30.291Z,99508.27
2023-04-28T05:45:33.828Z,99505.05
2023-04-28T05:50:38.894Z,99507.91
2023-04-28T05:55:42.917Z,99511.31
2023-04-28T06:00:47.062Z,99512.39
2023-04-28T06:05:50.690Z,99509.60
2023-04-28T06:10:54.334Z,99512.97
2023-04-28T06:15:58.636Z,99519.41
2023-04-28T06:21:02.499Z,99518.80
2023-04-28T06:26:05.846Z,99514.70
2023-04-28T06:31:09.606Z,99512.55
2023-04-28T06:36:14.231Z,99512.84
2023-04-28T06:41:17.552Z,99509.45
2023-04-28T06:46:24.579Z,99511.90
2023-04-28T06:51:29.041Z,99510.57
2023-04-28T06:56:33.372Z,99513.06
2023-04-28T07:01:36.973Z,99502.45
2023-04-28T07:06:41.171Z,99490.66
2023-04-28T07:11:45.070Z,99484.83
2023-04-28T07:22:05.712Z,99482.31
2023-04-28T07:27:09.212Z,99476.59
2023-04-28T07:32:12.662Z,99474.03
2023-04-28T07:37:16.990Z,99464.90
2023-04-28T07:42:20.364Z,99459.43
2023-04-28T07:47:24.139Z,99452.13
2023-04-28T07:52:27.637Z,99450.21
2023-04-28T07:57:31.769Z,99444.65
2023-04-28T08:02:35.182Z,99438.30
2023-04-28T08:07:38.885Z,99434.45
2023-04-28T08:12:42.424Z,99437.49
2023-04-28T08:17:45.766Z,99433.84
2023-04-28T08:22:49.010Z,99428.15
2023-04-28T08:27:53.477Z,99426.71
2023-04-28T08:32:58.005Z,99420.56
2023-04-28T08:38:01.617Z,99420.27
2023-04-28T08:43:05.281Z,99418.58
2023-04-28T08:48:22.301Z,99416.11
2023-04-28T08:53:27.085Z,99414.48
2023-04-28T08:58:31.310Z,99411.49
2023-04-28T09:03:34.896Z,99409.23
2023-04-28T09:08:38.199Z,99409.24
2023-04-28T09:13:42.176Z,99396.41
2023-04-28T09:19:00.866Z,99394.58
2023-04-28T09:24:05.607Z,99386.86
2023-04-28T09:29:15.108Z,99388.83
2023-04-28T09:34:18.807Z,99381.81
2023-04-28T09:39:30.934Z,99367.60
2023-04-28T09:44:34.204Z,99366.90
2023-04-28T09:49:55.343Z,99362.06
2023-04-28T09:54:58.696Z,99355.49
2023-04-28T10:00:06.390Z,99347.98
2023-04-28T10:05:11.138Z,99338.02
2023-04-28T10:10:20.767Z,99328.96
2023-04-28T10:15:25.086Z,99323.39
2023-04-28T10:20:34.023Z,99318.73
2023-04-28T10:25:38.987Z,99312.95
2023-04-28T10:30:42.451Z,99314.22
2023-04-28T10:35:47.957Z,99308.21
2023-04-28T10:41:01.309Z,99299.88
2023-04-28T10:46:06.814Z,99292.92
2023-04-28T10:51:10.396Z,99276.85
2023-04-28T10:56:25.108Z,99266.41
2023-04-28T11:01:35.122Z,99264.08
2023-04-28T11:06:46.162Z,99262.58
2023-04-28T11:11:58.081Z,99249.79
2023-04-28T11:17:06.600Z,99244.80
2023-04-28T11:22:22.131Z,99241.17
2023-04-28T11:27:27.121Z,99229.49
2023-04-28T11:32:33.079Z,99226.94
2023-04-28T11:37:36.610Z,99230.02
2023-04-28T11:42:50.114Z,99222.61
2023-04-28T11:47:53.532Z,99214.76
2023-04-28T11:52:56.928Z,99205.02
2023-04-28T11:58:25.321Z,99203.11
2023-04-28T12:03:28.583Z,99191.33
2023-04-28T12:08:31.719Z,99178.70
2023-04-28T12:13:36.437Z,99176.98
2023-04-28T12:18:59.019Z,99171.69
2023-04-28T12:24:16.273Z,99159.15
2023-04-28T12:29:40.913Z,99153.86
2023-04-28T12:34:46.876Z,99144.77
2023-04-28T12:39:50.486Z,99140.30
2023-04-28T12:44:53.607Z,99131.90
2023-04-28T12:49:56.596Z,99119.68
2023-04-28T12:55:00.218Z,99119.05
2023-04-28T13:00:03.690Z,99107.10
2023-04-28T13:05:07.523Z,99103.20
2023-04-28T13:10:10.796Z,99100.11
2023-04-28T13:15:13.881Z,99096.27
2023-04-28T13:20:17.334Z,99092.64
2023-04-28T13:25:20.888Z,99086.86
2023-04-28T13:30:23.887Z,99080.02
2023-04-28T13:35:30.307Z,99070.54
2023-04-28T13:40:34.683Z,99063.48
2023-04-28T13:45:37.764Z,99056.04
2023-04-28T13:50:40.855Z,99053.45
2023-04-28T13:55:44.026Z,99047.04
2023-04-28T14:00:47.728Z,99045.09
2023-04-28T14:05:56.657Z,99044.61
2023-04-28T14:11:01.334Z,99031.77
2023-04-28T14:16:04.722Z,99017.77
2023-04-28T14:25:38.869Z,99007.55
2023-04-28T14:30:42.396Z,99003.16
2023-04-28T14:35:45.846Z,99000.72
2023-04-28T14:40:49.230Z,98995.31
2023-04-28T14:45:53.124Z,98994.91
2023-04-28T14:50:57.624Z,98996.64
2023-04-28T14:56:16.813Z,98998.64
2023-04-28T15:01:24.670Z,98999.81
2023-04-28T15:06:28.288Z,98994.20
2023-04-28T15:11:32.391Z,98988.61
2023-04-28T15:16:35.449Z,98989.81
2023-04-28T15:21:39.009Z,98987.40
2023-04-28T15:26:42.612Z,98983.18
2023-04-28T15:31:45.768Z,98983.65
2023-04-28T15:36:54.635Z,98984.13
2023-04-28T15:41:59.660Z,98982.98
2023-04-28T15:47:02.829Z,98979.83
2023-04-28T15:52:05.885Z,98977.98
2023-04-28T15:57:09.341Z,98977.87
2023-04-28T16:02:12.392Z,98973.34
2023-04-28T16:07:15.526Z,98968.70
2023-04-28T16:12:18.581Z,98962.52
2023-04-28T16:17:23.020Z,98966.02
2023-04-28T16:22:26.176Z,98964.00
2023-04-28T16:27:29.871Z,98951.20
2023-04-28T16:32:36.362Z,98950.51
2023-04-28T16:37:41.072Z,98944.39
2023-04-28T16:42:57.105Z,98945.77
2023-04-28T16:48:00.093Z,98942.38
2023-04-28T16:53:03.282Z,98947.23
2023-04-28T16:58:06.704Z,98936.26
2023-04-28T17:03:09.809Z,98938.32
2023-04-28T17:08:12.982Z,98929.96
2023-04-28T17:13:16.211Z,98935.08
2023-04-28T17:18:19.270Z,98939.51
2023-04-28T17:23:22.723Z,98940.34
2023-04-28T17:28:26.321Z,98944.55
2023-04-28T17:33:29.728Z,98943.25
2023-04-28T17:38:33.033Z,98942.95
2023-04-28T17:43:39.543Z,98931.77
2023-04-28T17:48:43.250Z,98920.16
2023-04-28T17:53:49.197Z,98917.97
2023-04-28T17:58:52.598Z,98913.42
2023-04-28T18:04:06.478Z,98920.80
2023-04-28T18:09:09.826Z,98927.41
2023-04-28T18:14:16.139Z,98925.70
2023-04-28T18:19:19.280Z,98918.42
2023-04-28T18:24:22.655Z,98922.90
2023-04-28T18:29:26.272Z,98931.63
2023-04-28T18:34:29.574Z,98934.15
2023-04-28T18:39:32.733Z,98943.59
2023-04-28T18:44:36.014Z,98943.89
2023-04-28T18:49:40.104Z,98945.67
2023-04-28T18:54:43.842Z,98945.39
2023-04-28T18:59:47.252Z,98948.89
2023-04-28T19:04:51.562Z,98948.41
2023-04-28T19:09:55.163Z,98947.45
2023-04-28T19:14:58.367Z,98946.77
2023-04-28T19:20:01.482Z,98944.29
2023-04-28T19:25:07.014Z,98946.20
2023-04-28T19:30:12.796Z,98936.70
2023-04-28T19:35:16.163Z,98934.13
2023-04-28T19:40:19.389Z,98928.42
2023-04-28T19:45:22.583Z,98923.78
2023-04-28T19:50:25.717Z,98925.29
2023-04-28T19:55:29.387Z,98923.13
2023-04-28T20:00:32.743Z,98920.61
2023-04-28T20:05:39.016Z,98923.12
2023-04-28T20:10:42.585Z,98913.63
2023-04-28T20:15:45.641Z,98908.41
2023-04-28T20:20:52.416Z,98909.93
2023-04-28T20:25:55.580Z,98910.30
2023-04-28T20:30:58.972Z,98908.54
2023-04-28T20:36:02.154Z,98910.14
2023-04-28T20:41:05.621Z,98910.67
2023-04-28T20:46:13.564Z,98906.94
2023-04-28T20:51:17.601Z,98904.52
2023-04-28T20:56:20.936Z,98900.27
2023-04-28T21:01:24.079Z,98895.68
2023-04-28T21:06:27.129Z,98893.27
2023-04-28T21:11:30.623Z,98892.14
2023-04-28T21:16:33.703Z,98893.56
2023-04-28T21:21:37.786Z,98897.83
2023-04-28T21:26:41.043Z,98898.27
2023-04-28T21:31:44.716Z,98897.60
2023-04-28T21:36:47.836Z,98898.42
2023-04-28T21:41:50.859Z,98899.48
2023-04-28T21:46:53.873Z,98901.58
2023-04-28T21:51:56.936Z,98900.83
2023-04-28T21:56:59.956Z,98898.75
2023-04-28T22:02:03.245Z,98901.08
2023-04-28T22:07:06.725Z,98895.76
2023-04-28T22:12:09.779Z,98892.27
2023-04-28T22:17:12.768Z,98891.39
2023-04-28T22:22:16.298Z,98889.59
2023-04-28T22:27:19.409Z,98882.80
2023-04-28T22:32:22.686Z,98881.05
2023-04-28T22:37:26.047Z,98885.41
2023-04-28T22:42:29.798Z,98880.77
2023-04-28T22:47:36.370Z,98881.16
2023-04-28T22:52:39.651Z,98878.00
2023-04-28T22:57:42.698Z,98880.73
2023-04-28T23:02:46.044Z,98881.15
2023-04-28T23:07:49.349Z,98883.34
2023-04-28T23:12:52.552Z,98884.13
2023-04-28T23:17:55.547Z,98878.48
2023-04-28T23:22:59.514Z,98873.06
2023-04-28T23:28:02.608Z,98869.08
2023-04-28T23:33:06.117Z,98862.08
2023-04-28T23:38:09.097Z,98864.02
2023-04-28T23:43:13.086Z,98858.34
2023-04-28T23:48:16.019Z,98857.68
2023-04-28T23:53:19.155Z,98848.92
2023-04-28T23:58:22.208Z,98844.80
